sensor_id;sensor_type;location;lat;lon;timestamp;pressure;altitude;pressure_sealevel;temperature;humidity
60099;BME280;62818;49.394;8.686;2023-05-22T00:00:46;99915.59;;;18.19;93.83
60099;BME280;62818;49.394;8.686;2023-05-22T00:01:47;99920.13;;;18.19;93.87
60099;BME280;62818;49.394;8.686;2023-05-22T00:02:48;99913.25;;;18.23;92.77
60099;BME280;62818;49.394;8.686;2023-05-22T00:03:49;99910.09;;;18.26;91.79
60099;BME280;62818;49.394;8.686;2023-05-22T00:04:50;99907.69;;;17.90;92.50
60099;BME280;62818;49.394;8.686;2023-05-22T00:05:50;99904.03;;;17.49;95.65
60099;BME280;62818;49.394;8.686;2023-05-22T00:06:52;99907.94;;;17.88;96.13
60099;BME280;62818;49.394;8.686;2023-05-22T00:07:52;99896.75;;;17.80;94.72
60099;BME280;62818;49.394;8.686;2023-05-22T00:08:53;99899.44;;;17.80;96.09
60099;BME280;62818;49.394;8.686;2023-05-22T00:09:53;99911.53;;;17.94;95.63
60099;BME280;62818;49.394;8.686;2023-05-22T00:10:53;99900.78;;;18.05;94.35
60099;BME280;62818;49.394;8.686;2023-05-22T00:11:54;99902.09;;;17.80;94.00
60099;BME280;62818;49.394;8.686;2023-05-22T00:12:54;99909.31;;;17.79;95.52
60099;BME280;62818;49.394;8.686;2023-05-22T00:13:55;99904.75;;;18.03;94.69
60099;BME280;62818;49.394;8.686;2023-05-22T00:14:55;99906.41;;;17.92;93.78
60099;BME280;62818;49.394;8.686;2023-05-22T00:15:55;99910.63;;;17.53;97.62
60099;BME280;62818;49.394;8.686;2023-05-22T00:16:56;99910.94;;;17.80;96.35
60099;BME280;62818;49.394;8.686;2023-05-22T00:17:57;99899.75;;;17.95;94.11
60099;BME280;62818;49.394;8.686;2023-05-22T00:18:57;99908.03;;;18.05;93.00
60099;BME280;62818;49.394;8.686;2023-05-22T00:19:59;99906.88;;;18.01;92.99
60099;BME280;62818;49.394;8.686;2023-05-22T00:21:07;99910.72;;;17.58;95.67
60099;BME280;62818;49.394;8.686;2023-05-22T00:22:08;99905.13;;;17.71;96.89
60099;BME280;62818;49.394;8.686;2023-05-22T00:23:09;99907.28;;;17.28;97.54
60099;BME280;62818;49.394;8.686;2023-05-22T00:24:09;99911.28;;;17.08;100.00
60099;BME280;62818;49.394;8.686;2023-05-22T00:25:10;99904.84;;;16.97;100.00
60099;BME280;62818;49.394;8.686;2023-05-22T00:26:13;99910.78;;;16.99;100.00
60099;BME280;62818;49.394;8.686;2023-05-22T00:27:15;99908.13;;;16.99;100.00
60099;BME280;62818;49.394;8.686;2023-05-22T00:28:15;99907.88;;;17.42;100.00
60099;BME280;62818;49.394;8.686;2023-05-22T00:29:16;99906.13;;;17.47;97.85
60099;BME280;62818;49.394;8.686;2023-05-22T00:30:16;99909.69;;;17.71;97.46
60099;BME280;62818;49.394;8.686;2023-05-22T00:31:16;99900.94;;;17.75;96.21
60099;BME280;62818;49.394;8.686;2023-05-22T00:32:17;99900.00;;;17.82;95.32
60099;BME280;62818;49.394;8.686;2023-05-22T00:33:17;99898.34;;;17.69;95.69
60099;BME280;62818;49.394;8.686;2023-05-22T00:34:18;99900.47;;;17.78;95.90
60099;BME280;62818;49.394;8.686;2023-05-22T00:35:18;99895.97;;;17.49;96.25
60099;BME280;62818;49.394;8.686;2023-05-22T00:36:19;99907.03;;;17.18;98.54
60099;BME280;62818;49.394;8.686;2023-05-22T00:37:19;99908.69;;;17.01;100.00
60099;BME280;62818;49.394;8.686;2023-05-22T00:38:53;99905.13;;;17.19;100.00
60099;BME280;62818;49.394;8.686;2023-05-22T00:39:47;99904.94;;;17.20;100.00
60099;BME280;62818;49.394;8.686;2023-05-22T00:40:48;99910.31;;;17.43;99.72
60099;BME280;62818;49.394;8.686;2023-05-22T00:41:48;99914.03;;;17.31;100.00
60099;BME280;62818;49.394;8.686;2023-05-22T00:42:51;99907.94;;;17.53;99.71
60099;BME280;62818;49.394;8.686;2023-05-22T00:43:52;99905.69;;;17.50;99.06
60099;BME280;62818;49.394;8.686;2023-05-22T00:44:53;99903.03;;;17.21;99.84
60099;BME280;62818;49.394;8.686;2023-05-22T00:45:54;99899.81;;;17.30;100.00
60099;BME280;62818;49.394;8.686;2023-05-22T00:46:54;99905.47;;;17.52;100.00
60099;BME280;62818;49.394;8.686;2023-05-22T00:47:55;99900.94;;;17.64;98.92
60099;BME280;62818;49.394;8.686;2023-05-22T00:48:56;99902.53;;;17.42;99.47
60099;BME280;62818;49.394;8.686;2023-05-22T00:49:57;99898.00;;;17.65;98.96
60099;BME280;62818;49.394;8.686;2023-05-22T00:50:58;99900.34;;;17.73;97.90
60099;BME280;62818;49.394;8.686;2023-05-22T00:51:59;99912.25;;;17.77;97.66
60099;BME280;62818;49.394;8.686;2023-05-22T00:53:04;99904.53;;;17.81;97.27
60099;BME280;62818;49.394;8.686;2023-05-22T00:54:04;99902.19;;;17.85;96.79
60099;BME280;62818;49.394;8.686;2023-05-22T00:55:05;99899.19;;;17.69;97.29
60099;BME280;62818;49.394;8.686;2023-05-22T00:56:07;99904.09;;;17.72;97.02
60099;BME280;62818;49.394;8.686;2023-05-22T00:57:08;99900.53;;;17.37;98.02
60099;BME280;62818;49.394;8.686;2023-05-22T00:58:12;99904.22;;;17.13;99.65
60099;BME280;62818;49.394;8.686;2023-05-22T00:59:19;99897.34;;;17.17;100.00
60099;BME280;62818;49.394;8.686;2023-05-22T01:00:20;99899.16;;;17.46;99.27
60099;BME280;62818;49.394;8.686;2023-05-22T01:01:21;99895.22;;;17.08;100.00
60099;BME280;62818;49.394;8.686;2023-05-22T01:02:22;99900.88;;;16.88;100.00
60099;BME280;62818;49.394;8.686;2023-05-22T01:03:23;99893.59;;;16.65;100.00
60099;BME280;62818;49.394;8.686;2023-05-22T01:04:25;99904.16;;;17.01;100.00
60099;BME280;62818;49.394;8.686;2023-05-22T01:05:25;99893.44;;;17.31;100.00
60099;BME280;62818;49.394;8.686;2023-05-22T01:06:25;99893.03;;;17.16;100.00
60099;BME280;62818;49.394;8.686;2023-05-22T01:07:27;99901.53;;;16.72;100.00
60099;BME280;62818;49.394;8.686;2023-05-22T01:08:29;99899.13;;;16.64;100.00
60099;BME280;62818;49.394;8.686;2023-05-22T01:09:29;99899.06;;;17.00;100.00
60099;BME280;62818;49.394;8.686;2023-05-22T01:10:30;99895.59;;;16.70;100.00
60099;BME280;62818;49.394;8.686;2023-05-22T01:11:44;99903.25;;;16.96;100.00
60099;BME280;62818;49.394;8.686;2023-05-22T01:15:56;99898.50;;;16.80;100.00
60099;BME280;62818;49.394;8.686;2023-05-22T01:21:08;99894.22;;;17.32;100.00
60099;BME280;62818;49.394;8.686;2023-05-22T01:31:47;99899.25;;;16.87;100.00
60099;BME280;62818;49.394;8.686;2023-05-22T01:32:49;99894.47;;;16.59;100.00
60099;BME280;62818;49.394;8.686;2023-05-22T01:33:55;99894.25;;;16.61;100.00
60099;BME280;62818;49.394;8.686;2023-05-22T01:34:58;99891.84;;;17.00;100.00
60099;BME280;62818;49.394;8.686;2023-05-22T01:36:01;99896.88;;;16.79;100.00
60099;BME280;62818;49.394;8.686;2023-05-22T01:37:03;99899.44;;;16.74;100.00
60099;BME280;62818;49.394;8.686;2023-05-22T01:38:04;99898.78;;;16.90;100.00
60099;BME280;62818;49.394;8.686;2023-05-22T01:39:06;99899.91;;;16.53;100.00
60099;BME280;62818;49.394;8.686;2023-05-22T01:40:07;99904.22;;;16.54;100.00
60099;BME280;62818;49.394;8.686;2023-05-22T01:41:10;99900.75;;;16.83;100.00
60099;BME280;62818;49.394;8.686;2023-05-22T01:42:11;99896.25;;;16.95;100.00
60099;BME280;62818;49.394;8.686;2023-05-22T01:43:13;99901.91;;;16.57;100.00
60099;BME280;62818;49.394;8.686;2023-05-22T01:44:14;99910.50;;;16.77;100.00
60099;BME280;62818;49.394;8.686;2023-05-22T01:45:15;99911.72;;;16.93;100.00
60099;BME280;62818;49.394;8.686;2023-05-22T01:46:15;99904.00;;;16.85;100.00
60099;BME280;62818;49.394;8.686;2023-05-22T01:47:15;99907.78;;;16.95;100.00
60099;BME280;62818;49.394;8.686;2023-05-22T01:48:17;99917.03;;;17.11;100.00
60099;BME280;62818;49.394;8.686;2023-05-22T01:49:17;99912.03;;;16.85;100.00
60099;BME280;62818;49.394;8.686;2023-05-22T01:50:17;99910.94;;;16.74;100.00
60099;BME280;62818;49.394;8.686;2023-05-22T01:53:39;99911.63;;;16.15;100.00
60099;BME280;62818;49.394;8.686;2023-05-22T01:54:58;99911.63;;;16.15;100.00
60099;BME280;62818;49.394;8.686;2023-05-22T01:56:09;99914.94;;;16.54;100.00
60099;BME280;62818;49.394;8.686;2023-05-22T01:59:48;99920.56;;;16.64;100.00
60099;BME280;62818;49.394;8.686;2023-05-22T02:00:53;99918.63;;;16.53;100.00
60099;BME280;62818;49.394;8.686;2023-05-22T02:01:59;99910.75;;;16.21;100.00
60099;BME280;62818;49.394;8.686;2023-05-22T02:03:05;99912.16;;;16.60;100.00
60099;BME280;62818;49.394;8.686;2023-05-22T02:04:07;99912.22;;;16.36;100.00
60099;BME280;62818;49.394;8.686;2023-05-22T02:05:09;99913.44;;;16.58;100.00
60099;BME280;62818;49.394;8.686;2023-05-22T02:06:12;99923.25;;;16.27;100.00
60099;BME280;62818;49.394;8.686;2023-05-22T02:07:13;99920.72;;;16.51;100.00
60099;BME280;62818;49.394;8.686;2023-05-22T02:08:19;99918.28;;;16.79;100.00
60099;BME280;62818;49.394;8.686;2023-05-22T02:09:20;99916.13;;;16.87;100.00
60099;BME280;62818;49.394;8.686;2023-05-22T02:10:26;99926.81;;;16.58;100.00
60099;BME280;62818;49.394;8.686;2023-05-22T02:11:30;99926.34;;;16.24;100.00
60099;BME280;62818;49.394;8.686;2023-05-22T02:12:32;99925.59;;;16.17;100.00
60099;BME280;62818;49.394;8.686;2023-05-22T02:13:33;99918.91;;;16.08;100.00
60099;BME280;62818;49.394;8.686;2023-05-22T02:14:34;99923.38;;;16.14;100.00
60099;BME280;62818;49.394;8.686;2023-05-22T02:15:36;99926.06;;;16.51;100.00
60099;BME280;62818;49.394;8.686;2023-05-22T02:16:37;99924.28;;;16.63;100.00
60099;BME280;62818;49.394;8.686;2023-05-22T02:17:38;99927.38;;;16.78;100.00
60099;BME280;62818;49.394;8.686;2023-05-22T02:18:39;99923.22;;;16.46;100.00
60099;BME280;62818;49.394;8.686;2023-05-22T02:19:40;99924.03;;;16.28;100.00
60099;BME280;62818;49.394;8.686;2023-05-22T02:20:41;99930.22;;;16.65;100.00
60099;BME280;62818;49.394;8.686;2023-05-22T02:21:41;99923.38;;;16.32;100.00
60099;BME280;62818;49.394;8.686;2023-05-22T02:22:43;99936.75;;;16.32;100.00
60099;BME280;62818;49.394;8.686;2023-05-22T02:23:46;99933.94;;;16.64;100.00
60099;BME280;62818;49.394;8.686;2023-05-22T02:24:47;99937.69;;;16.74;100.00
60099;BME280;62818;49.394;8.686;2023-05-22T02:25:48;99929.50;;;16.58;100.00
60099;BME280;62818;49.394;8.686;2023-05-22T02:26:49;99930.50;;;16.75;100.00
60099;BME280;62818;49.394;8.686;2023-05-22T02:27:49;99930.91;;;16.90;100.00
60099;BME280;62818;49.394;8.686;2023-05-22T02:28:49;99928.00;;;16.91;100.00
60099;BME280;62818;49.394;8.686;2023-05-22T02:29:50;99928.56;;;16.82;100.00
60099;BME280;62818;49.394;8.686;2023-05-22T02:30:50;99930.63;;;16.80;100.00
60099;BME280;62818;49.394;8.686;2023-05-22T02:31:52;99935.72;;;16.70;100.00
60099;BME280;62818;49.394;8.686;2023-05-22T02:32:53;99932.06;;;16.28;100.00
60099;BME280;62818;49.394;8.686;2023-05-22T02:33:53;99935.34;;;16.30;100.00
60099;BME280;62818;49.394;8.686;2023-05-22T02:34:54;99927.84;;;16.57;100.00
60099;BME280;62818;49.394;8.686;2023-05-22T02:35:54;99927.25;;;16.55;100.00
60099;BME280;62818;49.394;8.686;2023-05-22T02:36:55;99926.78;;;16.21;100.00
60099;BME280;62818;49.394;8.686;2023-05-22T02:37:55;99934.75;;;16.10;100.00
60099;BME280;62818;49.394;8.686;2023-05-22T02:38:57;99927.97;;;16.44;100.00
60099;BME280;62818;49.394;8.686;2023-05-22T02:39:58;99926.38;;;16.61;100.00
60099;BME280;62818;49.394;8.686;2023-05-22T02:40:58;99928.81;;;16.62;100.00
60099;BME280;62818;49.394;8.686;2023-05-22T02:41:58;99926.63;;;16.71;100.00
60099;BME280;62818;49.394;8.686;2023-05-22T02:42:59;99924.19;;;16.69;100.00
60099;BME280;62818;49.394;8.686;2023-05-22T02:44:00;99920.84;;;16.74;100.00
60099;BME280;62818;49.394;8.686;2023-05-22T02:45:00;99921.75;;;16.31;100.00
60099;BME280;62818;49.394;8.686;2023-05-22T02:46:01;99915.50;;;16.01;100.00
60099;BME280;62818;49.394;8.686;2023-05-22T02:47:02;99920.94;;;15.95;100.00
60099;BME280;62818;49.394;8.686;2023-05-22T02:48:02;99916.63;;;16.12;100.00
60099;BME280;62818;49.394;8.686;2023-05-22T02:49:03;99909.56;;;16.36;100.00
60099;BME280;62818;49.394;8.686;2023-05-22T02:50:03;99913.72;;;16.50;100.00
60099;BME280;62818;49.394;8.686;2023-05-22T02:51:04;99914.16;;;16.47;100.00
60099;BME280;62818;49.394;8.686;2023-05-22T02:52:05;99924.81;;;16.17;100.00
60099;BME280;62818;49.394;8.686;2023-05-22T02:53:05;99923.16;;;16.16;100.00
60099;BME280;62818;49.394;8.686;2023-05-22T02:54:07;99924.59;;;16.37;100.00
60099;BME280;62818;49.394;8.686;2023-05-22T02:55:07;99923.81;;;16.11;100.00
60099;BME280;62818;49.394;8.686;2023-05-22T02:56:08;99922.53;;;15.96;100.00
60099;BME280;62818;49.394;8.686;2023-05-22T02:57:12;99924.78;;;16.35;100.00
60099;BME280;62818;49.394;8.686;2023-05-22T02:58:12;99925.53;;;16.06;100.00
60099;BME280;62818;49.394;8.686;2023-05-22T02:59:13;99920.34;;;15.68;100.00
60099;BME280;62818;49.394;8.686;2023-05-22T03:00:14;99926.66;;;15.49;100.00
60099;BME280;62818;49.394;8.686;2023-05-22T03:01:14;99919.66;;;15.54;100.00
60099;BME280;62818;49.394;8.686;2023-05-22T03:02:15;99921.84;;;15.82;100.00
60099;BME280;62818;49.394;8.686;2023-05-22T03:03:16;99921.59;;;16.08;100.00
60099;BME280;62818;49.394;8.686;2023-05-22T03:04:16;99922.06;;;16.23;100.00
60099;BME280;62818;49.394;8.686;2023-05-22T03:05:17;99917.06;;;16.27;100.00
60099;BME280;62818;49.394;8.686;2023-05-22T03:06:17;99932.28;;;16.26;100.00
60099;BME280;62818;49.394;8.686;2023-05-22T03:07:18;99932.59;;;16.18;100.00
60099;BME280;62818;49.394;8.686;2023-05-22T03:08:20;99931.63;;;16.31;100.00
60099;BME280;62818;49.394;8.686;2023-05-22T03:09:20;99926.34;;;16.24;100.00
60099;BME280;62818;49.394;8.686;2023-05-22T03:10:21;99931.69;;;16.24;100.00
60099;BME280;62818;49.394;8.686;2023-05-22T03:11:21;99925.44;;;15.94;100.00
60099;BME280;62818;49.394;8.686;2023-05-22T03:12:22;99922.97;;;15.93;100.00
60099;BME280;62818;49.394;8.686;2023-05-22T03:13:22;99918.91;;;15.90;100.00
60099;BME280;62818;49.394;8.686;2023-05-22T03:14:23;99925.00;;;15.97;100.00
60099;BME280;62818;49.394;8.686;2023-05-22T03:15:24;99927.69;;;16.15;100.00
60099;BME280;62818;49.394;8.686;2023-05-22T03:16:24;99935.88;;;16.20;100.00
60099;BME280;62818;49.394;8.686;2023-05-22T03:17:25;99935.28;;;16.18;100.00
60099;BME280;62818;49.394;8.686;2023-05-22T03:18:25;99934.38;;;15.88;100.00
60099;BME280;62818;49.394;8.686;2023-05-22T03:19:26;99934.88;;;15.97;100.00
60099;BME280;62818;49.394;8.686;2023-05-22T03:20:26;99939.59;;;15.77;100.00
60099;BME280;62818;49.394;8.686;2023-05-22T03:21:27;99934.31;;;15.70;100.00
60099;BME280;62818;49.394;8.686;2023-05-22T03:22:27;99933.31;;;15.89;100.00
60099;BME280;62818;49.394;8.686;2023-05-22T03:23:27;99937.28;;;15.80;100.00
60099;BME280;62818;49.394;8.686;2023-05-22T03:24:28;99939.97;;;15.80;100.00
60099;BME280;62818;49.394;8.686;2023-05-22T03:25:28;99939.94;;;16.05;100.00
60099;BME280;62818;49.394;8.686;2023-05-22T03:26:28;99936.84;;;16.08;100.00
60099;BME280;62818;49.394;8.686;2023-05-22T03:27:29;99934.13;;;15.90;100.00
60099;BME280;62818;49.394;8.686;2023-05-22T03:28:29;99939.84;;;15.93;100.00
60099;BME280;62818;49.394;8.686;2023-05-22T03:29:30;99943.28;;;16.18;100.00
60099;BME280;62818;49.394;8.686;2023-05-22T03:30:30;99947.91;;;16.29;100.00
60099;BME280;62818;49.394;8.686;2023-05-22T03:31:31;99949.25;;;16.20;100.00
60099;BME280;62818;49.394;8.686;2023-05-22T03:32:32;99941.50;;;15.94;100.00
60099;BME280;62818;49.394;8.686;2023-05-22T03:33:36;99949.84;;;16.22;100.00
60099;BME280;62818;49.394;8.686;2023-05-22T03:34:36;99945.75;;;16.20;100.00
60099;BME280;62818;49.394;8.686;2023-05-22T03:35:37;99952.28;;;16.24;100.00
60099;BME280;62818;49.394;8.686;2023-05-22T03:36:37;99958.28;;;16.38;100.00
60099;BME280;62818;49.394;8.686;2023-05-22T03:37:37;99964.41;;;16.45;100.00
60099;BME280;62818;49.394;8.686;2023-05-22T03:38:38;99964.41;;;16.45;100.00
60099;BME280;62818;49.394;8.686;2023-05-22T03:39:38;99964.38;;;16.08;100.00
60099;BME280;62818;49.394;8.686;2023-05-22T03:40:38;99959.84;;;16.09;100.00
60099;BME280;62818;49.394;8.686;2023-05-22T03:41:39;99961.72;;;16.26;100.00
60099;BME280;62818;49.394;8.686;2023-05-22T03:42:40;99958.88;;;16.21;100.00
60099;BME280;62818;49.394;8.686;2023-05-22T03:43:40;99958.88;;;16.21;100.00
60099;BME280;62818;49.394;8.686;2023-05-22T03:44:40;99957.19;;;16.27;100.00
60099;BME280;62818;49.394;8.686;2023-05-22T03:45:41;99963.34;;;16.27;100.00
60099;BME280;62818;49.394;8.686;2023-05-22T03:46:42;99966.16;;;16.32;100.00
60099;BME280;62818;49.394;8.686;2023-05-22T03:47:43;99963.88;;;16.36;100.00
60099;BME280;62818;49.394;8.686;2023-05-22T03:48:43;99959.44;;;16.30;100.00
60099;BME280;62818;49.394;8.686;2023-05-22T03:49:44;99957.69;;;16.17;100.00
60099;BME280;62818;49.394;8.686;2023-05-22T03:50:44;99960.22;;;16.12;100.00
60099;BME280;62818;49.394;8.686;2023-05-22T03:51:44;99952.94;;;16.19;100.00
60099;BME280;62818;49.394;8.686;2023-05-22T03:52:45;99961.28;;;16.29;100.00
60099;BME280;62818;49.394;8.686;2023-05-22T03:53:45;99954.00;;;16.18;100.00
60099;BME280;62818;49.394;8.686;2023-05-22T03:54:45;99962.88;;;15.94;100.00
60099;BME280;62818;49.394;8.686;2023-05-22T03:55:46;99951.72;;;15.97;100.00
60099;BME280;62818;49.394;8.686;2023-05-22T03:56:46;99951.81;;;16.09;100.00
60099;BME280;62818;49.394;8.686;2023-05-22T03:57:47;99960.69;;;15.85;100.00
60099;BME280;62818;49.394;8.686;2023-05-22T03:58:47;99951.81;;;15.66;100.00
60099;BME280;62818;49.394;8.686;2023-05-22T03:59:49;99954.31;;;15.61;100.00
60099;BME280;62818;49.394;8.686;2023-05-22T04:00:49;99956.59;;;15.82;100.00
60099;BME280;62818;49.394;8.686;2023-05-22T04:01:51;99954.41;;;16.15;100.00
60099;BME280;62818;49.394;8.686;2023-05-22T04:02:51;99954.66;;;16.32;100.00
60099;BME280;62818;49.394;8.686;2023-05-22T04:03:53;99960.38;;;16.36;100.00
60099;BME280;62818;49.394;8.686;2023-05-22T04:04:53;99961.78;;;16.38;100.00
60099;BME280;62818;49.394;8.686;2023-05-22T04:05:54;99963.56;;;16.44;100.00
60099;BME280;62818;49.394;8.686;2023-05-22T04:06:55;99961.13;;;16.43;100.00
60099;BME280;62818;49.394;8.686;2023-05-22T04:07:57;99958.44;;;16.43;100.00
60099;BME280;62818;49.394;8.686;2023-05-22T04:08:57;99962.75;;;16.44;100.00
60099;BME280;62818;49.394;8.686;2023-05-22T04:09:58;99960.06;;;16.44;100.00
60099;BME280;62818;49.394;8.686;2023-05-22T04:10:58;99958.19;;;16.51;100.00
60099;BME280;62818;49.394;8.686;2023-05-22T04:11:59;99963.91;;;16.54;100.00
60099;BME280;62818;49.394;8.686;2023-05-22T04:13:00;99961.28;;;16.48;100.00
60099;BME280;62818;49.394;8.686;2023-05-22T04:14:04;99963.97;;;16.48;100.00
60099;BME280;62818;49.394;8.686;2023-05-22T04:15:05;99962.28;;;16.53;100.00
60099;BME280;62818;49.394;8.686;2023-05-22T04:16:06;99948.25;;;15.97;100.00
60099;BME280;62818;49.394;8.686;2023-05-22T04:17:06;99959.03;;;16.26;100.00
60099;BME280;62818;49.394;8.686;2023-05-22T04:18:07;99959.94;;;16.39;100.00
60099;BME280;62818;49.394;8.686;2023-05-22T04:19:07;99957.88;;;16.41;100.00
60099;BME280;62818;49.394;8.686;2023-05-22T04:20:08;99963.56;;;16.44;100.00
60099;BME280;62818;49.394;8.686;2023-05-22T04:21:10;99964.41;;;16.45;100.00
60099;BME280;62818;49.394;8.686;2023-05-22T04:22:11;99967.72;;;16.22;100.00
60099;BME280;62818;49.394;8.686;2023-05-22T04:23:11;99962.78;;;16.25;100.00
60099;BME280;62818;49.394;8.686;2023-05-22T04:24:12;99961.56;;;16.40;100.00
60099;BME280;62818;49.394;8.686;2023-05-22T04:25:12;99969.28;;;16.11;100.00
60099;BME280;62818;49.394;8.686;2023-05-22T04:26:13;99961.09;;;16.06;100.00
60099;BME280;62818;49.394;8.686;2023-05-22T04:27:13;99972.09;;;15.98;100.00
60099;BME280;62818;49.394;8.686;2023-05-22T04:28:14;99963.63;;;16.01;100.00
60099;BME280;62818;49.394;8.686;2023-05-22T04:29:21;99968.63;;;16.34;100.00
60099;BME280;62818;49.394;8.686;2023-05-22T04:30:21;99968.25;;;16.30;100.00
60099;BME280;62818;49.394;8.686;2023-05-22T04:31:24;99971.50;;;15.96;100.00
60099;BME280;62818;49.394;8.686;2023-05-22T04:32:24;99964.50;;;15.95;100.00
60099;BME280;62818;49.394;8.686;2023-05-22T04:33:25;99966.16;;;16.32;100.00
60099;BME280;62818;49.394;8.686;2023-05-22T04:34:25;99971.06;;;16.17;100.00
60099;BME280;62818;49.394;8.686;2023-05-22T04:35:26;99969.06;;;16.13;100.00
60099;BME280;62818;49.394;8.686;2023-05-22T04:36:28;99976.72;;;16.09;100.00
60099;BME280;62818;49.394;8.686;2023-05-22T04:37:30;99964.72;;;16.37;100.00
60099;BME280;62818;49.394;8.686;2023-05-22T04:38:30;99972.72;;;16.37;100.00
60099;BME280;62818;49.394;8.686;2023-05-22T04:39:35;99967.78;;;16.15;100.00
60099;BME280;62818;49.394;8.686;2023-05-22T04:40:42;99977.00;;;16.19;100.00
60099;BME280;62818;49.394;8.686;2023-05-22T04:42:03;99973.53;;;16.37;100.00
60099;BME280;62818;49.394;8.686;2023-05-22T04:43:04;99969.63;;;16.58;100.00
60099;BME280;62818;49.394;8.686;2023-05-22T04:44:05;99969.47;;;16.71;100.00
60099;BME280;62818;49.394;8.686;2023-05-22T04:45:06;99974.06;;;16.82;100.00
60099;BME280;62818;49.394;8.686;2023-05-22T04:46:10;99974.63;;;16.54;100.00
60099;BME280;62818;49.394;8.686;2023-05-22T04:47:11;99977.47;;;16.16;100.00
60099;BME280;62818;49.394;8.686;2023-05-22T04:48:13;99968.53;;;16.04;100.00
60099;BME280;62818;49.394;8.686;2023-05-22T04:49:14;99970.94;;;16.12;100.00
60099;BME280;62818;49.394;8.686;2023-05-22T04:50:15;99967.88;;;16.27;100.00
60099;BME280;62818;49.394;8.686;2023-05-22T04:51:15;99972.19;;;16.46;100.00
60099;BME280;62818;49.394;8.686;2023-05-22T04:52:15;99967.38;;;16.55;100.00
60099;BME280;62818;49.394;8.686;2023-05-22T04:53:16;99969.47;;;16.71;100.00
60099;BME280;62818;49.394;8.686;2023-05-22T04:54:16;99965.13;;;16.88;100.00
60099;BME280;62818;49.394;8.686;2023-05-22T04:55:17;99974.06;;;16.64;100.00
60099;BME280;62818;49.394;8.686;2023-05-22T04:56:18;99971.38;;;16.82;100.00
60099;BME280;62818;49.394;8.686;2023-05-22T04:57:18;99979.38;;;17.00;100.00
60099;BME280;62818;49.394;8.686;2023-05-22T04:58:20;99973.56;;;17.03;100.00
60099;BME280;62818;49.394;8.686;2023-05-22T04:59:20;99972.78;;;17.14;100.00
60099;BME280;62818;49.394;8.686;2023-05-22T05:00:22;99974.00;;;17.18;100.00
60099;BME280;62818;49.394;8.686;2023-05-22T05:01:25;99974.66;;;17.14;100.00
60099;BME280;62818;49.394;8.686;2023-05-22T05:02:26;99975.03;;;17.17;100.00
60099;BME280;62818;49.394;8.686;2023-05-22T05:03:27;99969.22;;;17.20;100.00
60099;BME280;62818;49.394;8.686;2023-05-22T05:04:27;99976.38;;;17.08;100.00
60099;BME280;62818;49.394;8.686;2023-05-22T05:05:28;99974.19;;;17.17;100.00
60099;BME280;62818;49.394;8.686;2023-05-22T05:06:28;99978.03;;;17.09;100.00
60099;BME280;62818;49.394;8.686;2023-05-22T05:07:28;99975.25;;;17.16;100.00
60099;BME280;62818;49.394;8.686;2023-05-22T05:08:29;99972.19;;;17.12;100.00
60099;BME280;62818;49.394;8.686;2023-05-22T05:09:29;99976.38;;;16.78;100.00
60099;BME280;62818;49.394;8.686;2023-05-22T05:10:29;99970.56;;;16.81;100.00
60099;BME280;62818;49.394;8.686;2023-05-22T05:11:30;99971.03;;;17.08;100.00
60099;BME280;62818;49.394;8.686;2023-05-22T05:12:30;99968.28;;;17.26;100.00
60099;BME280;62818;49.394;8.686;2023-05-22T05:13:31;99976.09;;;17.28;100.00
60099;BME280;62818;49.394;8.686;2023-05-22T05:14:31;99974.03;;;17.00;100.00
60099;BME280;62818;49.394;8.686;2023-05-22T05:15:32;99971.28;;;16.88;100.00
60099;BME280;62818;49.394;8.686;2023-05-22T05:16:32;99964.69;;;16.91;100.00
60099;BME280;62818;49.394;8.686;2023-05-22T05:17:32;99962.22;;;16.89;100.00
60099;BME280;62818;49.394;8.686;2023-05-22T05:18:33;99971.53;;;16.87;100.00
60099;BME280;62818;49.394;8.686;2023-05-22T05:19:33;99976.13;;;17.10;100.00
60099;BME280;62818;49.394;8.686;2023-05-22T05:20:34;99966.56;;;17.32;100.00
60099;BME280;62818;49.394;8.686;2023-05-22T05:21:34;99963.75;;;17.27;100.00
60099;BME280;62818;49.394;8.686;2023-05-22T05:22:35;99974.09;;;17.23;100.00
60099;BME280;62818;49.394;8.686;2023-05-22T05:23:36;99970.53;;;16.99;100.00
60099;BME280;62818;49.394;8.686;2023-05-22T05:24:36;99974.81;;;17.30;100.00
60099;BME280;62818;49.394;8.686;2023-05-22T05:25:37;99977.78;;;17.40;100.00
60099;BME280;62818;49.394;8.686;2023-05-22T05:26:37;99979.94;;;17.61;100.00
60099;BME280;62818;49.394;8.686;2023-05-22T05:27:38;99971.63;;;17.51;100.00
60099;BME280;62818;49.394;8.686;2023-05-22T05:28:38;99984.97;;;17.28;100.00
60099;BME280;62818;49.394;8.686;2023-05-22T05:29:39;99979.75;;;17.33;100.00
60099;BME280;62818;49.394;8.686;2023-05-22T05:30:40;99978.00;;;17.39;100.00
60099;BME280;62818;49.394;8.686;2023-05-22T05:31:40;99978.41;;;17.54;100.00
60099;BME280;62818;49.394;8.686;2023-05-22T05:32:41;99984.84;;;17.76;100.00
60099;BME280;62818;49.394;8.686;2023-05-22T05:33:41;99978.78;;;17.81;100.00
60099;BME280;62818;49.394;8.686;2023-05-22T05:34:42;99976.22;;;17.74;100.00
60099;BME280;62818;49.394;8.686;2023-05-22T05:35:42;99976.81;;;17.88;100.00
60099;BME280;62818;49.394;8.686;2023-05-22T05:36:42;99981.50;;;17.92;100.00
60099;BME280;62818;49.394;8.686;2023-05-22T05:37:43;99974.22;;;17.69;100.00
60099;BME280;62818;49.394;8.686;2023-05-22T05:38:43;99972.41;;;17.82;100.00
60099;BME280;62818;49.394;8.686;2023-05-22T05:39:43;99974.22;;;17.69;100.00
60099;BME280;62818;49.394;8.686;2023-05-22T05:40:44;99979.03;;;17.79;100.00
60099;BME280;62818;49.394;8.686;2023-05-22T05:41:44;99976.22;;;17.74;100.00
60099;BME280;62818;49.394;8.686;2023-05-22T05:42:45;99980.63;;;17.57;100.00
60099;BME280;62818;49.394;8.686;2023-05-22T05:43:45;99973.66;;;17.67;100.00